Time;durP1;ratioP1;P1;durP2;ratioP2;P2;SDS_P1;SDS_P2;PMS_P1;PMS_P2;Temp;Humidity;BMP_temperature;BMP_pressure;BME280_temperature;BME280_humidity;BME280_pressure;Samples;Min_cycle;Max_cycle;Signal;HPM_P1;HPM_P2
2022/12/09 00:01:24;;;;;;;21.35;13.32;;;;;;;5.32;79.19;94666.09;5040200;28;20032;-72
2022/12/09 00:03:49;;;;;;;27.80;17.48;;;;;;;5.21;79.37;94677.13;5040888;28;20029;-72
2022/12/09 00:06:20;;;;;;;33.08;18.70;;;;;;;5.17;79.37;94693.66;5022028;28;20079;-72
2022/12/09 00:08:46;;;;;;;34.50;19.08;;;;;;;5.01;79.82;94674.97;5040431;28;20513;-72
2022/12/09 00:11:12;;;;;;;23.55;14.52;;;;;;;4.55;81.84;94672.69;5023486;28;20022;-71
2022/12/09 00:13:37;;;;;;;24.70;13.85;;;;;;;4.67;81.38;94693.31;5038429;28;20490;-72
2022/12/09 00:16:07;;;;;;;25.60;14.38;;;;;;;4.77;80.99;94688.44;5040183;28;20021;-72
2022/12/09 00:18:33;;;;;;;22.00;12.88;;;;;;;4.70;81.49;94690.56;5004707;28;20174;-72
2022/12/09 00:20:59;;;;;;;19.65;11.68;;;;;;;4.77;81.30;94715.94;5040218;28;20441;-72
2022/12/09 00:23:24;;;;;;;23.98;12.32;;;;;;;4.78;81.29;94690.09;5038721;28;20025;-72
2022/12/09 00:25:50;;;;;;;19.52;11.25;;;;;;;4.90;81.11;94696.22;5040139;28;20048;-72
2022/12/09 00:28:15;;;;;;;20.45;11.30;;;;;;;4.92;80.96;94691.81;5039798;28;20022;-72
2022/12/09 00:30:40;;;;;;;17.65;10.95;;;;;;;5.02;80.60;94702.38;5039243;28;20083;-72
2022/12/09 00:33:06;;;;;;;19.27;9.68;;;;;;;5.08;80.40;94709.72;5040894;28;20029;-72
2022/12/09 00:35:31;;;;;;;17.38;10.20;;;;;;;5.12;80.39;94698.28;5039174;28;20045;-72
2022/12/09 00:37:57;;;;;;;18.92;10.68;;;;;;;5.05;80.43;94697.03;5040605;28;20024;-72
2022/12/09 00:40:22;;;;;;;17.40;9.38;;;;;;;5.06;80.54;94696.09;5037957;28;20029;-72
2022/12/09 00:42:48;;;;;;;18.40;10.25;;;;;;;5.00;81.05;94693.91;5041721;28;20022;-72
2022/12/09 00:45:13;;;;;;;16.27;9.77;;;;;;;4.90;81.07;94696.22;5020840;28;20524;-72
2022/12/09 00:47:39;;;;;;;16.00;9.82;;;;;;;5.05;80.70;94694.47;5023282;28;20056;-72
2022/12/09 00:50:05;;;;;;;17.20;9.98;;;;;;;4.84;80.66;94668.28;5038053;28;20037;-72
2022/12/09 00:52:30;;;;;;;15.77;9.13;;;;;;;4.96;80.26;94687.28;5038696;28;20021;-72
2022/12/09 00:54:56;;;;;;;14.93;9.02;;;;;;;4.93;80.50;94683.16;5038338;28;21291;-72
2022/12/09 00:57:21;;;;;;;19.30;9.23;;;;;;;4.95;80.64;94688.22;5020929;28;20061;-72
2022/12/09 00:59:47;;;;;;;19.42;11.57;;;;;;;4.82;80.64;94665.84;5038945;28;20106;-72
2022/12/09 01:02:12;;;;;;;23.15;12.65;;;;;;;5.01;80.81;94700.72;5038929;28;20057;-72
2022/12/09 01:04:38;;;;;;;20.73;11.57;;;;;;;5.01;80.74;94685.25;5038595;28;20034;-72
2022/12/09 01:07:03;;;;;;;16.90;10.40;;;;;;;5.10;80.84;94698.41;5039228;28;20017;-72
2022/12/09 01:09:29;;;;;;;15.10;8.88;;;;;;;5.25;80.42;94706.06;5022785;28;20029;-72
2022/12/09 01:11:54;;;;;;;15.02;8.98;;;;;;;5.26;80.45;94695.66;5021612;28;20075;-72
2022/12/09 01:14:19;;;;;;;17.60;9.82;;;;;;;5.31;80.46;94708.25;5040572;28;20029;-72
2022/12/09 01:16:45;;;;;;;16.42;9.75;;;;;;;5.30;80.27;94691.97;5036538;28;20032;-72
2022/12/09 01:19:11;;;;;;;20.50;11.02;;;;;;;5.27;80.77;94675.91;5038502;28;20029;-72
2022/12/09 01:21:37;;;;;;;18.02;10.60;;;;;;;5.16;81.07;94679.16;5020363;28;20528;-72
2022/12/09 01:24:07;;;;;;;19.75;11.43;;;;;;;5.23;81.47;94685.53;5040456;28;20033;-72
2022/12/09 01:26:33;;;;;;;22.45;12.88;;;;;;;5.25;81.12;94678.56;5040806;28;20017;-72
2022/12/09 01:28:58;;;;;;;17.17;10.95;;;;;;;5.37;81.01;94682.09;5039206;28;20037;-72
2022/12/09 01:31:24;;;;;;;18.60;10.48;;;;;;;5.39;80.87;94669.94;5037229;28;20028;-72
2022/12/09 01:33:49;;;;;;;20.45;9.57;;;;;;;5.37;81.18;94664.06;5038484;28;20034;-74
2022/12/09 01:36:20;;;;;;;14.98;9.02;;;;;;;5.56;81.03;94676.56;5038590;28;20028;-72
2022/12/09 01:38:45;;;;;;;16.70;10.20;;;;;;;5.48;80.87;94663.38;5037858;28;20037;-73
2022/12/09 01:41:11;;;;;;;18.67;10.70;;;;;;;5.48;81.50;94683.97;5024214;28;20028;-72
2022/12/09 01:43:37;;;;;;;23.20;12.13;;;;;;;5.59;80.76;94676.38;5023083;28;20811;-72
2022/12/09 01:46:03;;;;;;;21.25;10.90;;;;;;;5.70;79.69;94666.19;5039199;28;20024;-72
2022/12/09 01:48:31;;;;;;;19.60;11.25;;;;;;;5.66;79.99;94667.31;5038458;28;20462;-72
2022/12/09 01:50:59;;;;;;;19.10;10.55;;;;;;;5.51;80.03;94663.16;5028163;28;20068;-72
2022/12/09 01:53:28;;;;;;;20.15;10.85;;;;;;;5.60;80.36;94672.88;5038507;28;20033;-72
2022/12/09 01:55:54;;;;;;;18.27;9.65;;;;;;;5.58;80.23;94667.00;5037295;28;20075;-72
2022/12/09 01:58:20;;;;;;;16.48;10.77;;;;;;;5.28;81.09;94650.03;5024632;28;20067;-72
2022/12/09 02:00:45;;;;;;;18.50;11.02;;;;;;;5.41;80.76;94662.13;5020924;28;20034;-72
2022/12/09 02:03:11;;;;;;;33.33;18.85;;;;;;;5.42;80.84;94685.19;5021457;28;20021;-72
2022/12/09 02:05:36;;;;;;;34.22;19.85;;;;;;;5.35;80.86;94683.97;5006663;28;20037;-72
2022/12/09 02:08:02;;;;;;;30.70;19.45;;;;;;;5.47;80.61;94679.75;5039758;28;20415;-72
2022/12/09 02:10:27;;;;;;;35.35;19.67;;;;;;;5.46;80.17;94673.78;5027840;28;20037;-72
2022/12/09 02:13:14;;;;;;;27.10;17.08;;;;;;;5.54;80.28;94678.41;5041374;28;20029;-73
2022/12/09 02:15:42;;;;;;;30.05;16.88;;;;;;;5.15;79.85;94621.69;5041691;28;20074;-72
2022/12/09 02:18:20;;;;;;;32.97;16.90;;;;;;;5.43;78.96;94663.66;5041572;28;20030;-72
2022/12/09 02:21:08;;;;;;;24.88;14.57;;;;;;;5.38;79.36;94656.25;5024442;28;20047;-73
2022/12/09 02:23:39;;;;;;;25.20;13.68;;;;;;;5.32;79.73;94671.25;5027756;28;20406;-72
2022/12/09 02:26:16;;;;;;;;;;;;;;;5.39;79.61;94651.91;5040143;28;20061;-70
2022/12/09 02:28:50;;;;;;;19.42;10.50;;;;;;;5.34;79.76;94659.09;5041406;28;19921;-72
2022/12/09 02:31:19;;;;;;;18.60;11.05;;;;;;;5.31;79.51;94677.34;5040173;28;20124;-73
2022/12/09 02:34:13;;;;;;;18.08;10.80;;;;;;;5.25;79.44;94657.94;5040563;28;20561;-73
2022/12/09 02:36:49;;;;;;;17.80;10.32;;;;;;;5.13;79.19;94666.47;5042425;28;20753;-72
2022/12/09 02:39:14;;;;;;;17.48;10.30;;;;;;;5.18;79.38;94673.88;5040588;28;20410;-72
2022/12/09 02:41:41;;;;;;;16.20;10.23;;;;;;;5.19;79.29;94663.50;5027724;28;20025;-72
2022/12/09 02:44:12;;;;;;;21.50;13.05;;;;;;;5.08;79.80;94653.06;5013366;28;20040;-73
2022/12/09 02:46:38;;;;;;;;;;;;;;;5.19;79.48;94660.09;5023935;28;20033;-72
2022/12/09 02:49:03;;;;;;;22.40;12.35;;;;;;;5.08;79.85;94669.34;5042954;28;20339;-72
2022/12/09 02:51:30;;;;;;;23.83;14.25;;;;;;;5.04;79.87;94670.47;5024445;28;20025;-72
2022/12/09 02:53:58;;;;;;;25.55;16.25;;;;;;;5.08;79.94;94668.50;5023390;28;20083;-72
2022/12/09 02:56:23;;;;;;;75.07;37.17;;;;;;;5.06;79.93;94689.19;5023351;28;20077;-72
2022/12/09 02:58:49;;;;;;;58.75;29.88;;;;;;;5.06;80.20;94672.91;5041073;28;20079;-72
2022/12/09 03:01:22;;;;;;;55.55;27.73;;;;;;;5.09;79.97;94690.75;5040467;28;20487;-72
2022/12/09 03:03:48;;;;;;;40.35;24.45;;;;;;;4.98;80.25;94678.56;5041913;28;20030;-72
2022/12/09 03:06:13;;;;;;;41.15;24.77;;;;;;;5.04;80.09;94693.63;5040110;28;20070;-72
2022/12/09 03:08:46;;;;;;;39.60;22.75;;;;;;;5.04;80.49;94682.50;5025209;28;20051;-72
2022/12/09 03:11:15;;;;;;;27.92;17.65;;;;;;;5.04;80.06;94670.47;5038564;28;20033;-72
2022/12/09 03:13:50;;;;;;;26.85;15.95;;;;;;;5.16;79.93;94686.88;5025381;28;20033;-72
2022/12/09 03:16:29;;;;;;;27.33;16.58;;;;;;;5.16;79.94;94679.16;5042914;28;20029;-71
2022/12/09 03:18:59;;;;;;;21.92;13.95;;;;;;;4.96;80.20;94674.41;5040656;28;20029;-71
2022/12/09 03:21:25;;;;;;;22.63;12.82;;;;;;;5.11;80.09;94689.72;5022321;28;20024;-71
2022/12/09 03:23:51;;;;;;;27.80;15.48;;;;;;;4.99;79.82;94659.63;5023918;28;20506;-71
2022/12/09 03:26:17;;;;;;;27.65;13.68;;;;;;;5.14;79.81;94681.81;5039184;28;20029;-72
2022/12/09 03:28:46;;;;;;;22.77;13.05;;;;;;;4.96;80.26;94672.69;5009733;28;20038;-71
2022/12/09 03:31:13;;;;;;;22.50;12.40;;;;;;;5.10;79.94;94679.53;5014103;28;20408;-71
2022/12/09 03:33:40;;;;;;;19.02;11.25;;;;;;;5.09;80.02;94685.59;5022882;28;20048;-71
2022/12/09 03:36:06;;;;;;;25.20;12.95;;;;;;;5.07;80.29;94679.72;5024148;28;20025;-71
2022/12/09 03:38:33;;;;;;;20.55;11.38;;;;;;;5.09;80.15;94670.16;5021827;28;20086;-71
2022/12/09 03:41:17;;;;;;;18.05;10.60;;;;;;;5.04;80.82;94677.34;5024541;28;20029;-71
2022/12/09 03:43:51;;;;;;;21.60;10.35;;;;;;;5.06;80.45;94665.19;5037679;28;20033;-71
2022/12/09 03:46:18;;;;;;;18.13;9.10;;;;;;;5.10;80.25;94664.91;5021956;28;20079;-71
2022/12/09 03:48:43;;;;;;;14.95;8.95;;;;;;;5.23;79.74;94674.41;5023095;28;20028;-71
2022/12/09 03:51:33;;;;;;;19.25;11.90;;;;;;;5.08;80.26;94665.94;5039627;28;20499;-71
2022/12/09 03:54:02;;;;;;;20.55;12.98;;;;;;;5.09;80.34;94667.56;5008353;28;20040;-71
2022/12/09 03:56:32;;;;;;;32.70;20.65;;;;;;;5.01;80.18;94657.75;5022139;28;20045;-71
2022/12/09 03:58:58;;;;;;;22.88;14.23;;;;;;;4.99;80.28;94664.78;5030501;28;20040;-71
2022/12/09 04:01:23;;;;;;;27.52;17.75;;;;;;;4.97;80.25;94663.22;5038609;28;20029;-71
2022/12/09 04:03:50;;;;;;;32.67;20.00;;;;;;;5.04;80.22;94685.06;5040097;28;20033;-71
2022/12/09 04:06:16;;;;;;;29.27;18.25;;;;;;;5.12;79.57;94699.09;5039226;28;20029;-71
2022/12/09 04:08:41;;;;;;;28.10;17.50;;;;;;;5.08;79.72;94689.09;5039986;28;20498;-71
2022/12/09 04:11:06;;;;;;;26.35;14.55;;;;;;;4.83;79.96;94684.66;5041237;28;20654;-71
2022/12/09 04:13:32;;;;;;;21.17;12.88;;;;;;;4.98;80.34;94699.16;5039944;28;20045;-71
2022/12/09 04:15:57;;;;;;;29.52;18.90;;;;;;;4.97;80.05;94687.22;5021568;28;20564;-71
2022/12/09 04:18:23;;;;;;;32.13;13.82;;;;;;;4.86;80.04;94675.00;5039874;28;20037;-71
2022/12/09 04:20:48;;;;;;;19.83;12.40;;;;;;;4.90;80.63;94684.19;5040621;28;20032;-71
2022/12/09 04:23:14;;;;;;;21.67;13.88;;;;;;;5.02;79.99;94684.34;5040365;28;20030;-71
2022/12/09 04:25:39;;;;;;;27.85;16.92;;;;;;;4.95;80.18;94662.47;5039400;28;20021;-71
2022/12/09 04:28:05;;;;;;;29.00;17.17;;;;;;;5.05;80.02;94684.97;5041347;28;20090;-71
2022/12/09 04:30:30;;;;;;;40.58;23.83;;;;;;;5.10;79.97;94690.66;5040117;28;20029;-71
2022/12/09 04:32:58;;;;;;;31.88;17.80;;;;;;;4.88;80.59;94683.47;5037598;28;20041;-71
2022/12/09 04:35:23;;;;;;;26.92;16.67;;;;;;;4.88;80.83;94673.16;5040699;28;20562;-71
2022/12/09 04:37:49;;;;;;;25.90;14.43;;;;;;;4.94;80.94;94679.69;5039065;28;20032;-71
2022/12/09 04:40:14;;;;;;;28.75;15.57;;;;;;;5.06;80.31;94678.06;5038487;28;20590;-71
2022/12/09 04:42:40;;;;;;;25.05;14.98;;;;;;;5.09;80.35;94668.41;5038765;28;20412;-71
2022/12/09 04:45:06;;;;;;;26.90;15.15;;;;;;;5.12;80.25;94668.19;5040750;28;20104;-71
2022/12/09 04:47:32;;;;;;;25.52;14.50;;;;;;;5.12;80.30;94670.78;5040122;28;20029;-71
2022/12/09 04:49:58;;;;;;;37.63;17.83;;;;;;;5.16;80.00;94663.69;5021670;28;20029;-71
2022/12/09 04:52:23;;;;;;;30.63;18.98;;;;;;;4.88;80.91;94659.47;5018328;28;20037;-71
2022/12/09 04:54:49;;;;;;;38.88;20.98;;;;;;;4.81;81.51;94673.63;5040002;28;20071;-71
2022/12/09 04:57:15;;;;;;;34.92;19.83;;;;;;;4.89;81.20;94672.22;5040452;28;20053;-71
2022/12/09 04:59:40;;;;;;;34.85;18.65;;;;;;;4.85;80.92;94660.50;5036997;28;20428;-72
2022/12/09 05:02:05;;;;;;;38.72;21.23;;;;;;;4.93;80.52;94672.84;5033911;28;20022;-71
2022/12/09 05:04:31;;;;;;;32.75;20.05;;;;;;;4.99;80.83;94697.44;5038573;28;20499;-71
2022/12/09 05:06:56;;;;;;;35.38;21.67;;;;;;;5.12;80.28;94695.69;5037779;28;20098;-71
2022/12/09 05:09:22;;;;;;;36.08;20.17;;;;;;;5.10;80.39;94700.16;5039528;28;20025;-71
2022/12/09 05:11:47;;;;;;;33.28;19.05;;;;;;;5.07;79.97;94684.88;5040315;28;20033;-71
2022/12/09 05:14:13;;;;;;;26.65;16.67;;;;;;;5.11;79.90;94697.47;5022252;28;20033;-71
2022/12/09 05:16:38;;;;;;;25.17;16.50;;;;;;;5.14;80.27;94697.25;5038266;28;20435;-72
2022/12/09 05:19:04;;;;;;;24.88;14.77;;;;;;;5.05;80.06;94679.81;5019897;28;20043;-71
2022/12/09 05:21:29;;;;;;;20.42;11.85;;;;;;;5.10;80.67;94684.69;5039166;28;20496;-71
2022/12/09 05:23:55;;;;;;;24.33;13.70;;;;;;;5.12;80.35;94683.66;5038297;28;20033;-71
2022/12/09 05:26:21;;;;;;;23.35;13.77;;;;;;;5.07;80.54;94665.13;5028789;28;20033;-71
2022/12/09 05:28:46;;;;;;;26.02;14.70;;;;;;;5.07;80.42;94674.56;5028400;28;20045;-72
2022/12/09 05:31:15;;;;;;;19.40;14.02;;;;;;;5.24;79.90;94682.06;5028926;28;20419;-71
2022/12/09 05:33:41;;;;;;;23.80;14.60;;;;;;;5.22;79.63;94686.47;5014353;28;20559;-71
2022/12/09 05:36:10;;;;;;;26.40;12.98;;;;;;;5.25;79.27;94683.72;5038942;28;20025;-71
2022/12/09 05:38:36;;;;;;;55.60;28.60;;;;;;;5.08;79.50;94691.69;5021940;28;20489;-71
2022/12/09 05:41:01;;;;;;;34.72;19.02;;;;;;;5.06;79.37;94693.53;5023213;28;20025;-69
2022/12/09 05:43:27;;;;;;;23.17;13.75;;;;;;;5.00;79.55;94689.59;5040378;28;20116;-71
2022/12/09 05:45:52;;;;;;;20.52;12.63;;;;;;;5.02;79.70;94707.53;5022218;28;20025;-71
2022/12/09 05:48:17;;;;;;;19.73;12.63;;;;;;;5.05;79.40;94713.31;5040697;28;20029;-71
2022/12/09 05:50:43;;;;;;;31.23;14.93;;;;;;;4.95;79.45;94711.41;5053896;28;20029;-70
2022/12/09 05:53:08;;;;;;;23.27;13.82;;;;;;;5.05;79.38;94709.91;5046931;28;20565;-69
2022/12/09 05:55:34;;;;;;;30.23;14.43;;;;;;;5.03;79.35;94711.75;5044632;28;20040;-70
2022/12/09 05:57:59;;;;;;;32.40;17.27;;;;;;;5.02;78.92;94713.50;5049351;28;20064;-69
2022/12/09 06:00:25;;;;;;;27.00;16.02;;;;;;;4.92;79.57;94700.34;5047297;28;20036;-69
2022/12/09 06:02:50;;;;;;;29.33;15.57;;;;;;;4.90;79.19;94706.53;5040208;28;20073;-69
2022/12/09 06:05:16;;;;;;;27.10;15.65;;;;;;;4.75;79.92;94700.59;5032263;28;20040;-69
2022/12/09 06:07:41;;;;;;;25.45;15.02;;;;;;;4.81;79.83;94705.34;5041451;28;20033;-70
2022/12/09 06:10:07;;;;;;;32.90;21.65;;;;;;;4.75;80.06;94689.47;5044112;28;20484;-69
2022/12/09 06:12:33;;;;;;;34.70;18.42;;;;;;;4.48;81.03;94696.22;5042469;28;20079;-69
2022/12/09 06:14:58;;;;;;;37.90;20.58;;;;;;;4.45;81.25;94667.25;5049716;28;20087;-69
2022/12/09 06:17:23;;;;;;;36.05;20.77;;;;;;;4.73;81.12;94684.41;5047651;28;20082;-70
2022/12/09 06:19:49;;;;;;;48.78;32.28;;;;;;;4.66;81.22;94701.97;5048593;28;20483;-69
2022/12/09 06:22:14;;;;;;;63.58;40.55;;;;;;;4.74;81.51;94714.38;5049100;28;20033;-70
2022/12/09 06:24:40;;;;;;;70.53;45.05;;;;;;;4.60;82.07;94696.41;5041231;28;20037;-69
2022/12/09 06:27:05;;;;;;;59.88;40.25;;;;;;;4.70;81.99;94705.19;5031073;28;20036;-69
2022/12/09 06:29:31;;;;;;;64.63;37.65;;;;;;;4.85;81.52;94708.56;5030989;28;20029;-70
2022/12/09 06:31:56;;;;;;;53.53;32.72;;;;;;;4.66;82.17;94703.72;5038212;28;20070;-69
2022/12/09 06:34:22;;;;;;;52.05;31.42;;;;;;;4.84;81.94;94715.44;5035869;28;20025;-70
2022/12/09 06:36:47;;;;;;;46.55;28.52;;;;;;;4.72;82.31;94702.53;5033243;28;20038;-70
2022/12/09 06:39:13;;;;;;;51.45;30.42;;;;;;;4.77;82.30;94710.78;5039525;28;20044;-69
2022/12/09 06:41:41;;;;;;;45.28;27.70;;;;;;;4.88;82.21;94727.22;5047167;28;20037;-69
2022/12/09 06:44:07;;;;;;;47.72;28.38;;;;;;;4.90;82.01;94720.25;5033082;28;20025;-69
2022/12/09 06:46:33;;;;;;;49.03;30.10;;;;;;;4.98;82.26;94718.91;5047130;28;20045;-70
2022/12/09 06:48:58;;;;;;;90.38;43.17;;;;;;;5.10;81.65;94743.94;5010051;28;20065;-70
2022/12/09 06:51:24;;;;;;;84.30;42.78;;;;;;;5.15;81.47;94734.13;5029740;28;20119;-72
2022/12/09 06:53:49;;;;;;;80.78;43.97;;;;;;;5.27;81.06;94733.38;5045757;28;20503;-70
2022/12/09 06:56:15;;;;;;;81.53;45.92;;;;;;;5.26;80.74;94726.56;5048348;28;20132;-70
2022/12/09 06:58:41;;;;;;;71.78;41.22;;;;;;;5.35;80.58;94745.78;5029120;28;20053;-69
2022/12/09 07:01:12;;;;;;;61.60;39.50;;;;;;;5.30;81.02;94720.31;5049315;28;20100;-70
2022/12/09 07:03:42;;;;;;;59.37;34.60;;;;;;;5.28;80.72;94740.19;5043188;28;20037;-70
2022/12/09 07:06:37;;;;;;;48.83;30.52;;;;;;;5.29;80.97;94728.97;5047482;28;20391;-70
2022/12/09 07:09:05;;;;;;;46.28;27.75;;;;;;;5.45;80.35;94741.69;5044363;28;20453;-70
2022/12/09 07:11:30;;;;;;;47.65;26.75;;;;;;;5.40;80.06;94719.72;5044426;28;20041;-69
2022/12/09 07:13:56;;;;;;;40.28;23.63;;;;;;;5.32;79.97;94697.84;5010626;28;20037;-69
2022/12/09 07:16:21;;;;;;;42.60;24.35;;;;;;;5.51;80.25;94725.81;5044759;28;20029;-70
2022/12/09 07:18:47;;;;;;;36.05;21.45;;;;;;;5.48;80.40;94717.47;5045797;28;20028;-69
2022/12/09 07:21:14;;;;;;;38.30;22.95;;;;;;;5.71;79.87;94734.88;5009175;28;20032;-69
2022/12/09 07:23:40;;;;;;;39.28;22.25;;;;;;;5.52;79.94;94706.06;5028421;28;20075;-70
2022/12/09 07:26:05;;;;;;;33.55;20.83;;;;;;;5.77;79.75;94728.50;5021089;28;20029;-70
2022/12/09 07:28:34;;;;;;;34.47;19.50;;;;;;;5.78;79.50;94723.22;5042028;28;20094;-69
2022/12/09 07:31:00;;;;;;;33.40;19.17;;;;;;;5.87;79.52;94733.84;5028784;28;20121;-72
2022/12/09 07:33:25;;;;;;;29.27;18.45;;;;;;;5.92;79.35;94736.97;5025590;28;20037;-71
2022/12/09 07:35:55;;;;;;;38.25;20.17;;;;;;;5.79;79.62;94703.41;5042735;28;20111;-70
2022/12/09 07:38:21;;;;;;;37.60;21.63;;;;;;;5.97;79.72;94714.31;5004396;28;20041;-70
2022/12/09 07:40:46;;;;;;;35.40;20.23;;;;;;;5.99;79.46;94720.16;5041695;28;20487;-71
2022/12/09 07:43:12;;;;;;;31.60;19.15;;;;;;;6.10;79.76;94728.06;5039238;28;20045;-70
2022/12/09 07:45:37;;;;;;;74.55;36.90;;;;;;;6.15;79.55;94728.53;5039623;28;20507;-70
2022/12/09 07:48:03;;;;;;;66.03;36.63;;;;;;;6.15;79.04;94725.97;5038281;28;20128;-71
2022/12/09 07:50:28;;;;;;;74.38;37.85;;;;;;;6.18;78.58;94714.63;5017480;28;20033;-70
2022/12/09 07:52:54;;;;;;;66.78;37.88;;;;;;;6.30;78.80;94720.72;5020701;28;20804;-70
2022/12/09 07:55:19;;;;;;;69.93;38.08;;;;;;;6.04;78.76;94680.28;5038368;28;20518;-70
2022/12/09 07:57:45;;;;;;;59.60;35.63;;;;;;;6.24;78.55;94711.63;5041562;28;20076;-70
2022/12/09 08:00:10;;;;;;;65.47;34.95;;;;;;;6.29;78.38;94706.16;5034965;28;20028;-70
2022/12/09 08:02:36;;;;;;;66.05;35.90;;;;;;;6.35;78.57;94714.34;5040371;28;20459;-71
2022/12/09 08:05:02;;;;;;;56.13;32.95;;;;;;;6.38;78.35;94721.00;5040450;28;20029;-70
2022/12/09 08:07:27;;;;;;;58.60;35.25;;;;;;;6.35;78.66;94698.00;5036710;28;20069;-70
2022/12/09 08:09:55;;;;;;;56.10;34.97;;;;;;;6.52;78.20;94718.34;5022266;28;20061;-70
2022/12/09 08:12:21;;;;;;;47.22;24.67;;;;;;;6.24;78.63;94715.06;5037047;28;20080;-71
2022/12/09 08:14:46;;;;;;;46.05;24.25;;;;;;;6.28;78.81;94722.59;5038031;28;20499;-70
2022/12/09 08:17:12;;;;;;;30.38;18.65;;;;;;;6.23;79.38;94723.69;5042302;28;20053;-70
2022/12/09 08:19:37;;;;;;;32.78;17.65;;;;;;;6.31;79.45;94730.13;5041401;28;20108;-70
2022/12/09 08:22:03;;;;;;;26.42;14.60;;;;;;;6.37;79.15;94729.69;5023204;28;20044;-70
2022/12/09 08:24:28;;;;;;;23.02;12.88;;;;;;;6.35;78.52;94711.75;5041177;28;20036;-71
2022/12/09 08:26:54;;;;;;;23.55;13.73;;;;;;;6.63;78.13;94746.81;5045526;28;20056;-72
2022/12/09 08:29:19;;;;;;;28.27;16.05;;;;;;;6.84;77.66;94748.84;5038329;28;20060;-72
2022/12/09 08:31:44;;;;;;;29.83;17.45;;;;;;;6.80;77.59;94739.66;5021342;28;20088;-72
2022/12/09 08:34:10;;;;;;;33.08;18.35;;;;;;;6.97;77.22;94738.50;5035694;28;20045;-72
2022/12/09 08:36:35;;;;;;;37.78;18.70;;;;;;;6.87;76.88;94728.81;5032194;28;20093;-72
2022/12/09 08:39:01;;;;;;;39.08;17.17;;;;;;;6.85;76.42;94732.41;5025847;28;20082;-72
2022/12/09 08:41:34;;;;;;;31.10;16.15;;;;;;;6.87;76.05;94726.22;5023416;28;20119;-72
2022/12/09 08:44:04;;;;;;;27.17;13.35;;;;;;;6.89;76.02;94713.22;5037633;28;20108;-72
2022/12/09 08:46:30;;;;;;;27.17;14.67;;;;;;;7.00;75.89;94713.28;5038469;28;20120;-72
2022/12/09 08:48:55;;;;;;;23.20;13.38;;;;;;;7.16;75.99;94710.47;5019022;28;20118;-72
2022/12/09 08:51:21;;;;;;;39.35;18.35;;;;;;;7.24;75.96;94712.47;5033648;28;20036;-71
2022/12/09 08:53:46;;;;;;;34.50;17.70;;;;;;;7.42;75.59;94698.25;5034995;28;20025;-72
2022/12/09 08:56:13;;;;;;;44.83;17.20;;;;;;;7.53;75.01;94690.53;5035016;28;20366;-72
2022/12/09 08:58:38;;;;;;;30.63;15.65;;;;;;;7.60;74.76;94699.50;5037038;28;20492;-72
2022/12/09 09:01:04;;;;;;;31.75;16.90;;;;;;;7.68;74.64;94687.75;5027814;28;20025;-71
2022/12/09 09:03:30;;;;;;;29.77;16.35;;;;;;;7.79;73.96;94675.69;5012489;28;20040;-72
2022/12/09 09:06:02;;;;;;;35.00;18.63;;;;;;;7.95;74.17;94690.09;5027576;28;20475;-72
2022/12/09 09:08:28;;;;;;;40.05;20.67;;;;;;;8.06;73.68;94672.81;5038617;28;20610;-72
2022/12/09 09:10:53;;;;;;;36.97;18.23;;;;;;;8.25;73.06;94666.25;5027388;28;20029;-72
2022/12/09 09:13:19;;;;;;;39.28;19.50;;;;;;;8.16;73.06;94651.41;5041435;28;20483;-72
2022/12/09 09:15:44;;;;;;;33.28;19.23;;;;;;;8.19;73.26;94657.19;5028473;28;20037;-72
2022/12/09 09:18:10;;;;;;;34.65;17.88;;;;;;;8.43;72.35;94659.69;5021817;28;20037;-72
2022/12/09 09:20:35;;;;;;;33.65;18.42;;;;;;;8.46;71.98;94641.34;5047016;28;20461;-72
2022/12/09 09:23:01;;;;;;;39.78;19.45;;;;;;;8.48;72.48;94646.41;5044711;28;20040;-72
2022/12/09 09:25:26;;;;;;;40.53;20.83;;;;;;;8.60;72.35;94639.44;5032840;28;20392;-72
2022/12/09 09:27:51;;;;;;;37.63;21.33;;;;;;;8.71;71.77;94631.66;5027727;28;20032;-72
2022/12/09 09:30:17;;;;;;;36.53;19.85;;;;;;;8.73;71.79;94638.38;5034919;28;20041;-72
2022/12/09 09:32:42;;;;;;;33.83;18.55;;;;;;;8.68;72.25;94626.72;5048952;28;20029;-72
2022/12/09 09:35:08;;;;;;;182.52;74.75;;;;;;;8.75;71.68;94614.97;5030360;28;20036;-72
2022/12/09 09:37:33;;;;;;;67.20;32.97;;;;;;;8.85;71.26;94617.63;5028326;28;20091;-72
2022/12/09 09:39:59;;;;;;;46.33;23.25;;;;;;;9.08;69.82;94627.00;5038103;28;20033;-72
2022/12/09 09:42:30;;;;;;;37.70;21.13;;;;;;;9.07;70.57;94616.75;5026222;28;20037;-74
2022/12/09 09:44:55;;;;;;;38.97;21.50;;;;;;;9.12;70.57;94624.97;5012074;28;21335;-72
2022/12/09 09:47:54;;;;;;;37.72;21.83;;;;;;;9.06;69.71;94597.78;5024283;28;20495;-72
2022/12/09 09:51:01;;;;;;;34.22;19.63;;;;;;;9.15;70.00;94614.38;5036457;28;20102;-72
2022/12/09 09:53:29;;;;;;;36.60;19.42;;;;;;;9.25;69.29;94599.72;5017782;28;20048;-73
2022/12/09 09:56:16;;;;;;;38.97;20.73;;;;;;;9.34;68.74;94603.34;5022565;28;20507;-72
2022/12/09 09:58:51;;;;;;;34.67;20.75;;;;;;;9.50;69.43;94597.72;5023677;28;20123;-73
2022/12/09 10:01:17;;;;;;;45.10;22.38;;;;;;;9.46;68.25;94591.16;5035925;28;20032;-71
2022/12/09 10:04:07;;;;;;;40.97;22.05;;;;;;;9.41;68.49;94570.78;5037068;28;20036;-72
2022/12/09 10:06:48;;;;;;;36.20;20.25;;;;;;;9.52;68.19;94581.09;5032321;28;20025;-72
2022/12/09 10:09:37;;;;;;;37.83;20.07;;;;;;;9.63;69.05;94556.88;5031738;28;20057;-73
2022/12/09 10:12:13;;;;;;;42.08;20.48;;;;;;;9.51;68.94;94511.22;5028278;28;20522;-73
2022/12/09 10:14:47;;;;;;;29.33;18.45;;;;;;;9.68;68.60;94530.56;5027731;28;20037;-73
2022/12/09 10:18:01;;;;;;;38.78;20.05;;;;;;;9.83;67.90;94535.28;5012514;28;20065;-73
2022/12/09 10:20:29;;;;;;;39.35;21.05;;;;;;;9.72;68.50;94535.38;5018905;28;20045;-73
2022/12/09 10:23:08;;;;;;;45.47;22.52;;;;;;;9.84;67.88;94534.31;5014588;28;20036;-72
2022/12/09 10:25:41;;;;;;;40.28;20.85;;;;;;;9.77;67.75;94533.19;5024930;28;20021;-73
2022/12/09 10:28:22;;;;;;;37.20;20.35;;;;;;;9.79;68.05;94531.28;5034031;28;20028;-72
2022/12/09 10:30:48;;;;;;;46.75;20.85;;;;;;;9.76;67.92;94522.94;5051959;28;20032;-73
2022/12/09 10:33:15;;;;;;;36.95;18.80;;;;;;;9.82;67.39;94528.44;5036858;28;20042;-73
2022/12/09 10:35:40;;;;;;;34.78;19.45;;;;;;;9.84;67.77;94528.31;5031904;28;20415;-73
2022/12/09 10:38:10;;;;;;;36.03;19.42;;;;;;;9.77;67.51;94515.03;5032788;28;20041;-72
2022/12/09 10:40:40;;;;;;;37.42;19.80;;;;;;;9.69;67.53;94516.63;5018002;28;20035;-73
2022/12/09 10:43:34;;;;;;;33.15;19.88;;;;;;;9.69;67.89;94520.03;5034445;28;20045;-73
2022/12/09 10:46:00;;;;;;;35.30;19.50;;;;;;;9.55;68.29;94499.63;5032846;28;20156;-72
2022/12/09 10:48:45;;;;;;;32.42;21.17;;;;;;;9.58;68.42;94502.81;5016375;28;20085;-72
2022/12/09 10:51:20;;;;;;;38.97;19.90;;;;;;;9.52;68.45;94500.69;5036838;28;20033;-73
2022/12/09 10:54:07;;;;;;;35.75;21.02;;;;;;;9.59;68.46;94493.25;5040443;28;20048;-72
2022/12/09 10:56:34;;;;;;;36.38;20.83;;;;;;;9.54;68.58;94487.63;5042855;28;20057;-72
2022/12/09 10:59:09;;;;;;;34.40;19.60;;;;;;;9.60;68.93;94494.88;5033146;28;20036;-72
2022/12/09 11:01:50;;;;;;;30.33;18.40;;;;;;;9.61;68.98;94505.13;5038211;28;20035;-73
2022/12/09 11:04:25;;;;;;;34.75;20.05;;;;;;;9.58;69.31;94501.97;5035118;28;20570;-73
2022/12/09 11:06:52;;;;;;;40.17;22.10;;;;;;;9.51;68.97;94487.88;5027382;28;20049;-72
2022/12/09 11:09:24;;;;;;;55.95;26.85;;;;;;;9.53;68.95;94504.13;5028836;28;20029;-72
2022/12/09 11:11:49;;;;;;;41.00;22.23;;;;;;;9.62;68.86;94487.78;5030747;28;20041;-72
2022/12/09 11:14:41;;;;;;;39.08;22.88;;;;;;;9.66;68.64;94496.13;5013501;28;20033;-72
2022/12/09 11:17:21;;;;;;;38.08;20.63;;;;;;;9.62;69.15;94493.00;5030037;28;20119;-72
2022/12/09 11:20:03;;;;;;;50.80;23.30;;;;;;;9.70;68.49;94489.75;5048408;28;20056;-73
2022/12/09 11:22:37;;;;;;;49.00;28.58;;;;;;;9.70;68.79;94480.19;5047787;28;20090;-72
2022/12/09 11:25:12;;;;;;;45.60;23.95;;;;;;;9.77;68.64;94483.91;5032163;28;20024;-72
2022/12/09 11:27:42;;;;;;;51.25;24.42;;;;;;;9.77;68.42;94477.91;5046783;28;20045;-73
2022/12/09 11:30:14;;;;;;;45.00;21.70;;;;;;;9.79;68.37;94466.44;5046449;28;20075;-73
2022/12/09 11:33:11;;;;;;;42.88;22.95;;;;;;;9.82;68.07;94468.75;5048011;28;20033;-73